createdAt,value
2019-03-11T00:00:11.226Z,4.10
2019-03-11T00:01:11.278Z,4.10
2019-03-11T00:03:04.264Z,4.14
2019-03-11T00:04:04.311Z,4.17
2019-03-11T00:05:57.280Z,4.32
2019-03-11T00:06:57.342Z,4.31
2019-03-11T00:08:50.316Z,4.38
2019-03-11T00:09:50.364Z,4.38
2019-03-11T00:11:43.342Z,4.45
2019-03-11T00:12:43.387Z,4.50
2019-03-11T00:14:36.374Z,4.50
2019-03-11T00:15:36.437Z,4.66
2019-03-11T00:17:29.414Z,4.63
2019-03-11T00:18:29.450Z,4.63
2019-03-11T00:20:22.420Z,4.60
2019-03-11T00:21:22.475Z,4.75
2019-03-11T00:23:15.456Z,4.74
2019-03-11T00:24:15.502Z,4.77
2019-03-11T00:26:08.487Z,4.82
2019-03-11T00:27:08.538Z,4.80
2019-03-11T00:29:01.524Z,4.90
2019-03-11T00:30:01.568Z,4.93
2019-03-11T00:31:54.565Z,4.89
2019-03-11T00:32:54.606Z,4.77
2019-03-11T00:34:47.577Z,4.89
2019-03-11T00:35:47.631Z,4.93
2019-03-11T00:37:40.613Z,5.00
2019-03-11T00:38:40.657Z,4.90
2019-03-11T00:40:33.634Z,4.89
2019-03-11T00:41:33.683Z,4.97
2019-03-11T00:43:26.665Z,4.97
2019-03-11T00:44:26.712Z,4.90
2019-03-11T00:46:19.690Z,4.99
2019-03-11T00:47:19.746Z,5.04
2019-03-11T00:49:12.731Z,4.97
2019-03-11T00:50:12.778Z,4.89
2019-03-11T00:52:05.784Z,4.94
2019-03-11T00:53:05.807Z,4.90
2019-03-11T00:54:58.783Z,4.93
2019-03-11T00:55:58.825Z,4.92
2019-03-11T00:57:51.807Z,4.93
2019-03-11T00:58:51.863Z,4.89
2019-03-11T01:00:44.833Z,4.82
2019-03-11T01:01:44.892Z,4.84
2019-03-11T01:03:37.873Z,4.60
2019-03-11T01:04:37.920Z,4.62
2019-03-11T01:06:30.894Z,4.53
2019-03-11T01:07:30.947Z,4.44
2019-03-11T01:09:23.934Z,4.48
2019-03-11T01:10:23.975Z,4.37
2019-03-11T01:12:16.957Z,4.23
2019-03-11T01:13:17.016Z,4.26
2019-03-11T01:15:09.979Z,4.13
2019-03-11T01:16:10.032Z,4.22
2019-03-11T01:18:03.018Z,4.14
2019-03-11T01:19:03.061Z,4.12
2019-03-11T01:20:56.036Z,4.14
2019-03-11T01:21:56.106Z,4.08
2019-03-11T01:23:49.068Z,4.05
2019-03-11T01:24:49.120Z,4.04
2019-03-11T01:26:42.093Z,3.99
2019-03-11T01:27:42.148Z,3.86
2019-03-11T01:29:35.128Z,3.84
2019-03-11T01:30:35.175Z,3.73
2019-03-11T01:32:28.178Z,3.83
2019-03-11T01:33:28.226Z,3.78
2019-03-11T01:35:21.195Z,3.69
2019-03-11T01:36:21.250Z,3.69
2019-03-11T01:38:14.234Z,3.78
2019-03-11T01:39:14.278Z,3.70
2019-03-11T01:41:07.247Z,3.83
2019-03-11T01:42:07.310Z,3.78
2019-03-11T01:44:00.296Z,3.76
2019-03-11T01:45:00.442Z,3.80
2019-03-11T01:46:53.318Z,3.95
2019-03-11T01:47:53.380Z,3.99
2019-03-11T01:49:46.374Z,4.24
2019-03-11T01:50:46.400Z,4.24
2019-03-11T01:52:39.384Z,4.35
2019-03-11T01:53:39.429Z,4.52
2019-03-11T01:55:32.400Z,4.59
2019-03-11T01:56:32.469Z,4.66
2019-03-11T01:58:25.459Z,4.78
2019-03-11T01:59:25.482Z,4.70
2019-03-11T02:01:18.490Z,4.60
2019-03-11T02:02:18.507Z,4.71
2019-03-11T02:04:11.498Z,4.78
2019-03-11T02:05:11.550Z,4.73
2019-03-11T02:07:04.514Z,4.63
2019-03-11T02:08:04.568Z,4.75
2019-03-11T02:09:57.569Z,4.70
2019-03-11T02:10:57.599Z,4.74
2019-03-11T02:12:50.578Z,4.80
2019-03-11T02:13:50.625Z,4.78
2019-03-11T02:15:43.601Z,4.77
2019-03-11T02:16:43.661Z,4.63
2019-03-11T02:18:36.634Z,4.60
2019-03-11T02:19:36.726Z,4.63
2019-03-11T02:21:29.660Z,4.60
2019-03-11T02:22:29.719Z,4.62
2019-03-11T02:24:22.703Z,4.60
2019-03-11T02:25:22.751Z,4.58
2019-03-11T02:27:15.720Z,4.66
2019-03-11T02:28:15.775Z,4.60
2019-03-11T02:30:08.755Z,4.60
2019-03-11T02:31:08.804Z,4.52
2019-03-11T02:33:01.794Z,4.50
2019-03-11T02:34:01.852Z,4.41
2019-03-11T02:35:54.809Z,4.42
2019-03-11T02:36:54.862Z,4.35
2019-03-11T02:38:47.852Z,4.30
2019-03-11T02:39:47.895Z,4.26
2019-03-11T02:41:41.379Z,4.20
2019-03-11T02:42:41.428Z,4.19
2019-03-11T02:44:34.409Z,4.16
2019-03-11T02:45:34.456Z,4.23
2019-03-11T02:47:27.429Z,4.22
2019-03-11T02:48:27.483Z,4.24
2019-03-11T02:50:20.468Z,4.19
2019-03-11T02:51:20.512Z,4.16
2019-03-11T02:53:13.500Z,4.19
2019-03-11T02:54:13.545Z,4.17
2019-03-11T02:56:06.518Z,4.22
2019-03-11T02:57:06.588Z,4.14
2019-03-11T02:58:59.556Z,4.06
2019-03-11T02:59:59.628Z,4.04
2019-03-11T03:01:52.579Z,4.10
2019-03-11T03:02:52.640Z,4.19
2019-03-11T03:04:45.613Z,4.17
2019-03-11T03:05:45.694Z,4.05
2019-03-11T03:07:38.632Z,4.10
2019-03-11T03:08:38.687Z,4.06
2019-03-11T03:10:31.664Z,4.16
2019-03-11T03:11:31.712Z,4.06
2019-03-11T03:13:24.695Z,4.08
2019-03-11T03:14:24.742Z,4.02
2019-03-11T03:16:17.718Z,4.05
2019-03-11T03:17:17.774Z,4.02
2019-03-11T03:19:10.753Z,4.08
2019-03-11T03:20:10.799Z,4.02
2019-03-11T03:22:03.773Z,4.13
2019-03-11T03:23:03.829Z,4.06
2019-03-11T03:24:56.809Z,4.06
2019-03-11T03:25:56.877Z,4.17
2019-03-11T03:27:50.020Z,4.19
2019-03-11T03:28:49.886Z,4.02
2019-03-11T03:30:42.872Z,4.13
2019-03-11T03:31:42.949Z,4.12
2019-03-11T03:33:35.912Z,4.19
2019-03-11T03:34:35.951Z,4.19
2019-03-11T03:36:28.946Z,4.04
2019-03-11T03:37:29.003Z,4.17
2019-03-11T03:39:21.984Z,4.04
2019-03-11T03:40:22.030Z,4.08
2019-03-11T03:42:15.524Z,4.14
2019-03-11T03:43:15.571Z,4.06
2019-03-11T03:45:08.543Z,4.08
2019-03-11T03:46:18.788Z,4.12
2019-03-11T03:48:01.567Z,4.05
2019-03-11T03:49:01.614Z,3.98
2019-03-11T03:50:54.600Z,4.02
2019-03-11T03:51:54.639Z,4.02
2019-03-11T03:53:47.675Z,4.12
2019-03-11T03:54:47.672Z,4.04
2019-03-11T03:56:40.647Z,4.10
2019-03-11T03:57:40.704Z,4.14
2019-03-11T03:59:33.680Z,4.17
2019-03-11T04:00:33.728Z,4.16
2019-03-11T04:02:26.703Z,4.19
2019-03-11T04:03:26.764Z,4.22
2019-03-11T04:05:20.590Z,4.23
2019-03-11T04:06:20.637Z,4.28
2019-03-11T04:08:13.612Z,4.28
2019-03-11T04:09:13.669Z,4.30
2019-03-11T04:11:06.645Z,4.32
2019-03-11T04:12:06.691Z,4.28
2019-03-11T04:13:59.676Z,4.30
2019-03-11T04:14:59.727Z,4.40
2019-03-11T04:16:52.698Z,4.34
2019-03-11T04:17:52.747Z,4.38
2019-03-11T04:19:45.746Z,4.32
2019-03-11T04:20:45.781Z,4.22
2019-03-11T04:22:38.789Z,4.23
2019-03-11T04:23:38.840Z,4.24
2019-03-11T04:25:31.827Z,4.24
2019-03-11T04:26:31.865Z,4.26
2019-03-11T04:28:24.834Z,4.30
2019-03-11T04:29:24.892Z,4.31
2019-03-11T04:31:17.864Z,4.30
2019-03-11T04:32:17.909Z,4.26
2019-03-11T04:34:10.889Z,4.26
2019-03-11T04:35:10.936Z,4.26
2019-03-11T04:37:03.919Z,4.28
2019-03-11T04:38:03.974Z,4.24
2019-03-11T04:39:56.974Z,4.17
2019-03-11T04:40:57.022Z,4.16
2019-03-11T04:42:50.509Z,4.19
2019-03-11T04:43:50.557Z,4.14
2019-03-11T04:45:43.539Z,4.12
2019-03-11T04:46:43.590Z,4.02
2019-03-11T04:48:36.555Z,4.01
2019-03-11T04:49:36.609Z,4.05
2019-03-11T04:51:29.588Z,4.08
2019-03-11T04:52:29.634Z,4.06
2019-03-11T04:54:22.619Z,4.14
2019-03-11T04:55:22.661Z,4.10
2019-03-11T04:57:15.634Z,4.17
2019-03-11T04:58:15.700Z,4.04
2019-03-11T05:00:08.687Z,4.10
2019-03-11T05:01:08.724Z,4.02
2019-03-11T05:03:01.701Z,4.05
2019-03-11T05:04:01.749Z,3.99
2019-03-11T05:05:54.731Z,4.02
2019-03-11T05:06:54.780Z,4.08
2019-03-11T05:08:47.742Z,4.17
2019-03-11T05:09:47.804Z,4.14
2019-03-11T05:11:40.784Z,4.24
2019-03-11T05:12:40.830Z,4.14
2019-03-11T05:14:33.811Z,4.05
2019-03-11T05:15:33.864Z,4.08
2019-03-11T05:17:26.836Z,4.13
2019-03-11T05:18:26.892Z,4.08
2019-03-11T05:20:19.880Z,4.06
2019-03-11T05:21:19.987Z,4.04
2019-03-11T05:23:12.907Z,4.19
2019-03-11T05:24:12.959Z,4.13
2019-03-11T05:26:05.946Z,4.19
2019-03-11T05:27:05.997Z,4.22
2019-03-11T05:28:58.969Z,4.20
2019-03-11T05:29:59.023Z,4.17
2019-03-11T05:31:52.003Z,4.22
2019-03-11T05:32:52.049Z,4.17
2019-03-11T05:34:45.043Z,4.14
2019-03-11T05:35:45.080Z,4.06
2019-03-11T05:37:38.056Z,4.12
2019-03-11T05:38:38.115Z,4.17
2019-03-11T05:40:31.091Z,4.17
2019-03-11T05:41:31.134Z,4.16
2019-03-11T05:43:24.124Z,4.17
2019-03-11T05:44:24.168Z,4.19
2019-03-11T05:46:17.147Z,4.14
2019-03-11T05:47:17.192Z,4.20
2019-03-11T05:49:10.210Z,4.19
2019-03-11T05:50:10.235Z,4.08
2019-03-11T05:52:03.218Z,4.16
2019-03-11T05:53:03.266Z,4.19
2019-03-11T05:54:56.253Z,4.16
2019-03-11T05:55:56.350Z,4.16
2019-03-11T05:57:49.275Z,4.13
2019-03-11T05:58:49.327Z,4.19
2019-03-11T06:00:42.308Z,4.19
2019-03-11T06:01:42.354Z,4.26
2019-03-11T06:03:35.331Z,4.10
2019-03-11T06:04:35.385Z,4.10
2019-03-11T06:06:28.375Z,4.14
2019-03-11T06:07:28.426Z,4.12
2019-03-11T06:09:21.401Z,4.12
2019-03-11T06:10:21.460Z,4.24
2019-03-11T06:12:14.437Z,4.24
2019-03-11T06:13:14.483Z,4.30
2019-03-11T06:15:07.466Z,4.22
2019-03-11T06:16:07.514Z,4.17
2019-03-11T06:18:00.499Z,4.17
2019-03-11T06:19:00.553Z,4.13
2019-03-11T06:20:53.534Z,4.10
2019-03-11T06:21:53.580Z,4.17
2019-03-11T06:23:46.554Z,4.13
2019-03-11T06:24:46.607Z,4.16
2019-03-11T06:26:39.609Z,4.10
2019-03-11T06:27:39.634Z,4.19
2019-03-11T06:29:32.610Z,4.16
2019-03-11T06:30:32.663Z,4.17
2019-03-11T06:32:25.666Z,4.14
2019-03-11T06:33:25.698Z,4.12
2019-03-11T06:35:18.687Z,4.19
2019-03-11T06:36:18.758Z,4.05
2019-03-11T06:38:11.727Z,4.17
2019-03-11T06:39:11.783Z,4.17
2019-03-11T06:41:04.768Z,4.14
2019-03-11T06:42:04.815Z,4.19
2019-03-11T06:43:57.801Z,4.08
2019-03-11T06:44:57.855Z,4.10
2019-03-11T06:46:50.836Z,4.14
2019-03-11T06:47:50.881Z,4.30
2019-03-11T06:49:43.876Z,4.22
2019-03-11T06:50:43.928Z,4.26
2019-03-11T06:52:36.904Z,4.40
2019-03-11T06:53:36.955Z,4.30
2019-03-11T06:55:29.943Z,4.12
2019-03-11T06:56:29.985Z,4.16
2019-03-11T06:58:22.966Z,4.19
2019-03-11T06:59:23.021Z,4.20
2019-03-11T07:01:16.008Z,4.08
2019-03-11T07:02:16.050Z,4.20
2019-03-11T07:04:09.030Z,4.17
2019-03-11T07:05:19.264Z,4.16
2019-03-11T07:07:02.071Z,4.16
2019-03-11T07:08:02.134Z,4.14
2019-03-11T07:09:55.103Z,4.30
2019-03-11T07:10:55.151Z,4.37
2019-03-11T07:12:48.151Z,4.49
2019-03-11T07:13:48.227Z,4.49
2019-03-11T07:15:41.180Z,4.45
2019-03-11T07:16:41.233Z,4.55
2019-03-11T07:18:34.208Z,4.44
2019-03-11T07:19:34.257Z,4.48
2019-03-11T07:21:27.230Z,4.38
2019-03-11T07:22:27.284Z,4.26
2019-03-11T07:24:20.267Z,4.28
2019-03-11T07:25:20.312Z,4.34
2019-03-11T07:27:13.297Z,4.24
2019-03-11T07:28:13.351Z,4.24
2019-03-11T07:30:06.338Z,4.20
2019-03-11T07:31:06.385Z,4.20
2019-03-11T07:32:59.357Z,4.05
2019-03-11T07:33:59.410Z,4.02
2019-03-11T07:35:52.401Z,4.17
2019-03-11T07:36:52.438Z,4.12
2019-03-11T07:38:45.425Z,4.10
2019-03-11T07:39:45.464Z,4.22
2019-03-11T07:41:38.456Z,4.17
2019-03-11T07:42:38.508Z,4.13
2019-03-11T07:44:31.491Z,4.12
2019-03-11T07:45:31.536Z,4.13
2019-03-11T07:47:24.517Z,4.22
2019-03-11T07:48:24.571Z,4.19
2019-03-11T07:50:17.552Z,4.23
2019-03-11T07:51:17.602Z,4.16
2019-03-11T07:53:10.578Z,4.28
2019-03-11T07:54:10.632Z,4.28
2019-03-11T07:56:03.611Z,4.28
2019-03-11T07:57:03.659Z,4.35
2019-03-11T07:58:56.649Z,4.26
2019-03-11T07:59:56.695Z,4.31
2019-03-11T08:01:49.677Z,4.30
2019-03-11T08:02:49.729Z,4.31
2019-03-11T08:04:42.710Z,4.26
2019-03-11T08:05:42.750Z,4.16
2019-03-11T08:07:35.726Z,4.12
2019-03-11T08:08:35.887Z,4.02
2019-03-11T08:10:28.759Z,3.94
2019-03-11T08:11:29.073Z,3.86
2019-03-11T08:13:21.787Z,3.76
2019-03-11T08:14:21.846Z,3.74
2019-03-11T08:16:14.838Z,3.70
2019-03-11T08:17:14.886Z,3.76
2019-03-11T08:19:07.860Z,3.66
2019-03-11T08:20:07.912Z,3.63
2019-03-11T08:22:00.966Z,3.62
2019-03-11T08:23:01.013Z,3.73
2019-03-11T08:24:54.002Z,3.77
2019-03-11T08:25:54.047Z,3.77
2019-03-11T08:27:47.022Z,3.80
2019-03-11T08:28:47.076Z,3.87
2019-03-11T08:30:40.060Z,3.99
2019-03-11T08:31:40.111Z,3.95
2019-03-11T08:33:33.081Z,4.10
2019-03-11T08:34:33.134Z,4.05
2019-03-11T08:36:26.120Z,4.24
2019-03-11T08:37:26.164Z,4.28
2019-03-11T08:39:19.160Z,4.42
2019-03-11T08:40:19.193Z,4.44
2019-03-11T08:42:12.696Z,4.49
2019-03-11T08:43:12.737Z,4.40
2019-03-11T08:45:05.711Z,4.41
2019-03-11T08:46:05.797Z,4.48
2019-03-11T08:47:58.745Z,4.48
2019-03-11T08:48:58.793Z,4.42
2019-03-11T08:50:51.793Z,4.48
2019-03-11T08:51:51.841Z,4.62
2019-03-11T08:53:44.814Z,4.67
2019-03-11T08:54:44.870Z,4.71
2019-03-11T08:56:37.972Z,4.90
2019-03-11T08:57:40.070Z,4.87
2019-03-11T08:59:30.869Z,4.89
2019-03-11T09:00:30.924Z,4.82
2019-03-11T09:02:23.927Z,4.93
2019-03-11T09:03:23.972Z,4.96
2019-03-11T09:05:16.962Z,5.20
2019-03-11T09:06:17.017Z,5.33
2019-03-11T09:08:10.001Z,5.41
2019-03-11T09:09:10.089Z,5.38
2019-03-11T09:11:03.032Z,5.48
2019-03-11T09:12:03.070Z,5.62
2019-03-11T09:13:56.050Z,5.53
2019-03-11T09:14:56.105Z,5.41
2019-03-11T09:16:49.093Z,5.17
2019-03-11T09:17:49.139Z,5.05
2019-03-11T09:19:42.119Z,4.96
2019-03-11T09:20:42.170Z,4.94
2019-03-11T09:22:35.176Z,4.90
2019-03-11T09:23:35.223Z,4.89
2019-03-11T09:25:28.204Z,4.86
2019-03-11T09:26:28.258Z,4.80
2019-03-11T09:28:21.310Z,4.82
2019-03-11T09:29:21.290Z,4.80
2019-03-11T09:31:14.298Z,4.86
2019-03-11T09:32:14.320Z,4.90
2019-03-11T09:34:07.294Z,5.04
2019-03-11T09:35:07.345Z,5.02
2019-03-11T09:37:00.334Z,5.10
2019-03-11T09:38:00.377Z,5.07
2019-03-11T09:39:53.361Z,5.29
2019-03-11T09:40:53.411Z,5.21
2019-03-11T09:42:46.902Z,5.35
2019-03-11T09:43:46.958Z,5.25
2019-03-11T09:45:39.935Z,5.30
2019-03-11T09:46:39.974Z,5.28
2019-03-11T09:48:32.966Z,5.46
2019-03-11T09:49:33.014Z,5.46
2019-03-11T09:51:26.000Z,5.56
2019-03-11T09:52:26.051Z,5.72
2019-03-11T09:54:19.045Z,5.97
2019-03-11T09:55:19.090Z,6.05
2019-03-11T09:57:12.077Z,6.02
2019-03-11T09:58:12.125Z,5.90
2019-03-11T10:00:05.102Z,5.76
2019-03-11T10:01:05.162Z,5.71
2019-03-11T10:02:58.138Z,5.69
2019-03-11T10:03:58.182Z,5.79
2019-03-11T10:05:51.159Z,5.84
2019-03-11T10:06:51.215Z,5.80
2019-03-11T10:08:44.214Z,5.66
2019-03-11T10:09:44.250Z,5.65
2019-03-11T10:11:37.269Z,5.46
2019-03-11T10:12:37.294Z,5.48
2019-03-11T10:14:30.300Z,5.53
2019-03-11T10:15:30.348Z,5.56
2019-03-11T10:17:23.337Z,5.62
2019-03-11T10:18:23.387Z,5.64
2019-03-11T10:20:16.360Z,5.76
2019-03-11T10:21:16.414Z,5.72
2019-03-11T10:23:09.424Z,5.98
2019-03-11T10:24:09.461Z,6.11
2019-03-11T10:26:02.438Z,6.30
2019-03-11T10:27:02.493Z,6.63
2019-03-11T10:28:55.479Z,7.40
2019-03-11T10:29:55.538Z,7.50
2019-03-11T10:31:48.509Z,7.45
2019-03-11T10:32:48.556Z,7.32
2019-03-11T10:34:41.540Z,7.20
2019-03-11T10:35:41.591Z,7.14
2019-03-11T10:37:34.584Z,7.06
2019-03-11T10:38:34.633Z,6.85
2019-03-11T10:40:27.609Z,6.45
2019-03-11T10:41:27.663Z,6.39
2019-03-11T10:43:20.651Z,6.35
2019-03-11T10:44:20.697Z,6.30
2019-03-11T10:46:13.683Z,6.63
2019-03-11T10:47:14.699Z,6.87
2019-03-11T10:49:06.725Z,6.89
2019-03-11T10:50:06.773Z,6.97
2019-03-11T10:51:59.752Z,7.10
2019-03-11T10:52:59.807Z,7.05
2019-03-11T10:54:52.804Z,7.23
2019-03-11T10:55:52.840Z,7.33
2019-03-11T10:57:45.826Z,7.45
2019-03-11T10:58:45.875Z,7.51
2019-03-11T11:00:38.860Z,7.76
2019-03-11T11:01:38.907Z,7.82
2019-03-11T11:03:31.897Z,7.95
2019-03-11T11:04:31.949Z,8.01
2019-03-11T11:06:24.933Z,8.18
2019-03-11T11:07:24.986Z,8.18
2019-03-11T11:09:17.964Z,8.12
2019-03-11T11:10:18.017Z,8.10
2019-03-11T11:12:10.999Z,8.01
2019-03-11T11:13:11.056Z,8.08
2019-03-11T11:15:04.044Z,7.97
2019-03-11T11:16:04.087Z,7.95
2019-03-11T11:17:57.079Z,7.93
2019-03-11T11:18:57.130Z,7.98
2019-03-11T11:20:50.111Z,7.93
2019-03-11T11:21:50.166Z,7.94
2019-03-11T11:23:43.155Z,8.10
2019-03-11T11:24:43.199Z,8.03
2019-03-11T11:26:36.187Z,7.95
2019-03-11T11:27:36.660Z,7.80
2019-03-11T11:29:29.221Z,7.69
2019-03-11T11:30:29.266Z,7.85
2019-03-11T11:32:22.252Z,7.43
2019-03-11T11:33:22.298Z,7.40
2019-03-11T11:35:15.282Z,7.28
2019-03-11T11:36:15.332Z,7.17
2019-03-11T11:38:08.328Z,6.89
2019-03-11T11:39:08.368Z,7.00
2019-03-11T11:41:01.351Z,7.13
2019-03-11T11:42:01.405Z,7.14
2019-03-11T11:43:54.396Z,7.28
2019-03-11T11:44:54.442Z,7.45
2019-03-11T11:46:47.416Z,7.61
2019-03-11T11:47:47.479Z,7.67
2019-03-11T11:49:40.463Z,7.75
2019-03-11T11:50:40.514Z,7.76
2019-03-11T11:52:33.505Z,7.85
2019-03-11T11:53:33.663Z,7.91
2019-03-11T11:55:26.552Z,8.52
2019-03-11T11:56:26.586Z,8.70
2019-03-11T11:58:19.595Z,8.51
2019-03-11T11:59:19.668Z,8.33
2019-03-11T12:01:12.641Z,7.90
2019-03-11T12:02:12.681Z,7.85
2019-03-11T12:04:05.679Z,7.73
2019-03-11T12:05:05.730Z,7.66
2019-03-11T12:06:58.722Z,7.63
2019-03-11T12:07:58.784Z,7.53
2019-03-11T12:09:51.761Z,7.58
2019-03-11T12:10:51.815Z,7.72
2019-03-11T12:12:44.802Z,7.70
2019-03-11T12:13:44.845Z,7.69
2019-03-11T12:15:37.836Z,7.67
2019-03-11T12:16:37.893Z,7.72
2019-03-11T12:18:30.862Z,7.87
2019-03-11T12:19:30.918Z,7.82
2019-03-11T12:21:23.908Z,8.10
2019-03-11T12:22:23.951Z,8.18
2019-03-11T12:24:16.960Z,8.34
2019-03-11T12:25:16.988Z,8.33
2019-03-11T12:27:09.975Z,8.38
2019-03-11T12:28:10.019Z,8.49
2019-03-11T12:30:03.009Z,8.51
2019-03-11T12:31:03.060Z,8.52
2019-03-11T12:32:56.032Z,8.52
2019-03-11T12:33:56.090Z,8.48
2019-03-11T12:35:49.080Z,8.55
2019-03-11T12:36:49.176Z,8.60
2019-03-11T12:38:42.121Z,8.53
2019-03-11T12:39:42.172Z,8.55
2019-03-11T12:41:35.162Z,8.33
2019-03-11T12:42:35.209Z,8.30
2019-03-11T12:44:28.213Z,8.26
2019-03-11T12:45:28.247Z,8.37
2019-03-11T12:47:21.236Z,8.89
2019-03-11T12:48:21.301Z,9.25
2019-03-11T12:50:14.911Z,9.54
2019-03-11T12:51:14.325Z,9.55
2019-03-11T12:53:07.323Z,9.50
2019-03-11T12:54:07.359Z,9.32
2019-03-11T12:56:00.343Z,9.22
2019-03-11T12:57:00.396Z,9.06
2019-03-11T12:58:53.372Z,9.19
2019-03-11T12:59:53.430Z,9.19
2019-03-11T13:01:46.415Z,9.16
2019-03-11T13:02:46.464Z,9.10
2019-03-11T13:04:39.442Z,9.06
2019-03-11T13:05:39.501Z,9.16
2019-03-11T13:07:32.487Z,9.22
2019-03-11T13:08:32.535Z,9.22
2019-03-11T13:10:25.533Z,9.21
2019-03-11T13:11:25.578Z,9.25
2019-03-11T13:13:19.254Z,9.22
2019-03-11T13:14:18.617Z,9.26
2019-03-11T13:16:11.604Z,9.21
2019-03-11T13:17:11.650Z,9.26
2019-03-11T13:19:12.835Z,9.21
2019-03-11T13:20:04.685Z,9.23
2019-03-11T13:21:57.674Z,9.21
2019-03-11T13:22:57.791Z,9.22
2019-03-11T13:24:50.703Z,9.37
2019-03-11T13:25:50.758Z,9.31
2019-03-11T13:27:43.749Z,9.21
2019-03-11T13:28:43.794Z,9.23
2019-03-11T13:30:36.807Z,8.69
2019-03-11T13:31:36.838Z,8.60
2019-03-11T13:33:29.831Z,8.41
2019-03-11T13:34:29.880Z,8.33
2019-03-11T13:36:22.887Z,8.41
2019-03-11T13:37:22.940Z,8.28
2019-03-11T13:39:15.931Z,8.30
2019-03-11T13:40:16.006Z,8.20
2019-03-11T13:42:09.483Z,8.12
2019-03-11T13:43:09.533Z,8.20
2019-03-11T13:45:02.515Z,8.09
2019-03-11T13:46:02.564Z,7.93
2019-03-11T13:47:55.546Z,8.06
2019-03-11T13:48:55.594Z,8.15
2019-03-11T13:50:48.577Z,8.46
2019-03-11T13:51:48.629Z,8.55
2019-03-11T13:53:41.611Z,8.82
2019-03-11T13:54:41.666Z,8.95
2019-03-11T13:56:34.953Z,9.18
2019-03-11T13:57:34.723Z,9.23
2019-03-11T13:59:27.696Z,9.23
2019-03-11T14:00:27.758Z,9.25
2019-03-11T14:02:20.750Z,9.08
2019-03-11T14:03:20.799Z,9.25
2019-03-11T14:05:13.792Z,9.13
2019-03-11T14:06:13.848Z,9.21
2019-03-11T14:08:06.840Z,9.25
2019-03-11T14:09:06.903Z,9.34
2019-03-11T14:10:59.878Z,9.46
2019-03-11T14:11:59.941Z,9.50
2019-03-11T14:13:53.059Z,9.41
2019-03-11T14:14:52.975Z,9.48
2019-03-11T14:16:45.967Z,9.48
2019-03-11T14:17:46.019Z,9.37
2019-03-11T14:19:39.027Z,9.18
2019-03-11T14:20:39.062Z,9.06
2019-03-11T14:22:32.045Z,8.78
2019-03-11T14:23:32.098Z,8.56
2019-03-11T14:25:25.096Z,8.41
2019-03-11T14:26:25.142Z,8.41
2019-03-11T14:28:18.141Z,8.30
2019-03-11T14:29:18.191Z,8.37
2019-03-11T14:31:11.166Z,8.48
2019-03-11T14:32:11.219Z,8.38
2019-03-11T14:34:04.202Z,8.44
2019-03-11T14:35:04.254Z,8.49
2019-03-11T14:36:57.239Z,8.45
2019-03-11T14:37:57.289Z,8.37
2019-03-11T14:39:50.277Z,8.52
2019-03-11T14:40:50.322Z,8.53
2019-03-11T14:42:43.817Z,8.52
2019-03-11T14:43:43.895Z,8.42
2019-03-11T14:45:36.873Z,8.52
2019-03-11T14:46:36.925Z,8.45
2019-03-11T14:48:29.920Z,8.45
2019-03-11T14:49:29.969Z,8.31
2019-03-11T14:51:22.955Z,8.15
2019-03-11T14:52:23.013Z,8.03
2019-03-11T14:54:15.995Z,7.58
2019-03-11T14:55:16.044Z,7.50
2019-03-11T14:57:09.024Z,7.31
2019-03-11T14:58:09.087Z,7.10
2019-03-11T15:00:02.071Z,6.96
2019-03-11T15:01:02.117Z,6.85
2019-03-11T15:02:55.097Z,6.82
2019-03-11T15:03:55.149Z,6.81
2019-03-11T15:05:48.146Z,6.79
2019-03-11T15:06:48.195Z,6.66
2019-03-11T15:08:41.181Z,6.57
2019-03-11T15:09:50.983Z,6.57
2019-03-11T15:11:34.230Z,6.31
2019-03-11T15:12:34.273Z,6.35
2019-03-11T15:14:27.260Z,6.52
2019-03-11T15:15:27.305Z,6.57
2019-03-11T15:17:20.287Z,6.75
2019-03-11T15:18:20.340Z,6.81
2019-03-11T15:20:13.340Z,6.82
2019-03-11T15:21:13.384Z,6.72
2019-03-11T15:23:18.993Z,6.77
2019-03-11T15:24:06.432Z,6.70
2019-03-11T15:25:59.434Z,6.63
2019-03-11T15:26:59.455Z,6.57
2019-03-11T15:28:52.435Z,6.57
2019-03-11T15:29:52.489Z,6.51
2019-03-11T15:31:45.482Z,6.67
2019-03-11T15:32:45.532Z,6.74
2019-03-11T15:34:38.577Z,6.72
2019-03-11T15:35:38.561Z,6.67
2019-03-11T15:37:31.564Z,6.66
2019-03-11T15:38:31.594Z,6.77
2019-03-11T15:40:24.583Z,6.70
2019-03-11T15:41:24.632Z,6.72
2019-03-11T15:43:17.608Z,6.77
2019-03-11T15:44:17.663Z,6.67
2019-03-11T15:46:10.657Z,6.70
2019-03-11T15:47:10.702Z,6.67
2019-03-11T15:49:03.700Z,6.77
2019-03-11T15:50:03.748Z,6.78
2019-03-11T15:51:56.749Z,6.85
2019-03-11T15:52:56.854Z,6.82
2019-03-11T15:54:49.773Z,6.84
2019-03-11T15:55:49.826Z,6.85
2019-03-11T15:57:42.820Z,6.78
2019-03-11T15:58:42.865Z,6.77
2019-03-11T16:00:35.837Z,6.77
2019-03-11T16:01:35.893Z,6.67
2019-03-11T16:03:36.164Z,6.72
2019-03-11T16:04:28.929Z,6.77
2019-03-11T16:06:21.910Z,6.72
2019-03-11T16:07:21.958Z,6.59
2019-03-11T16:09:18.997Z,6.57
2019-03-11T16:10:16.986Z,6.62
2019-03-11T16:12:07.978Z,6.59
2019-03-11T16:13:08.027Z,6.60
2019-03-11T16:15:01.018Z,6.51
2019-03-11T16:16:01.058Z,6.52
2019-03-11T16:17:54.043Z,6.46
2019-03-11T16:18:54.094Z,6.49
2019-03-11T16:20:47.081Z,6.57
2019-03-11T16:21:47.136Z,6.59
2019-03-11T16:23:40.106Z,6.75
2019-03-11T16:24:40.159Z,6.72
2019-03-11T16:26:33.145Z,6.77
2019-03-11T16:27:33.190Z,6.87
2019-03-11T16:29:26.172Z,6.85
2019-03-11T16:30:26.225Z,6.85
2019-03-11T16:32:19.229Z,6.81
2019-03-11T16:33:19.268Z,6.74
2019-03-11T16:35:12.241Z,6.74
2019-03-11T16:36:12.302Z,6.74
2019-03-11T16:38:05.279Z,6.69
2019-03-11T16:39:05.329Z,6.77
2019-03-11T16:40:58.363Z,6.69
2019-03-11T16:41:58.366Z,6.60
2019-03-11T16:43:51.348Z,6.64
2019-03-11T16:44:51.392Z,6.70
2019-03-11T16:46:44.393Z,6.67
2019-03-11T16:47:44.440Z,6.66
2019-03-11T16:49:37.424Z,6.57
2019-03-11T16:50:37.469Z,6.54
2019-03-11T16:52:30.452Z,6.51
2019-03-11T16:53:30.591Z,6.56
2019-03-11T16:55:23.489Z,6.46
2019-03-11T16:56:23.548Z,6.46
2019-03-11T16:58:16.527Z,6.42
2019-03-11T16:59:16.575Z,6.35
2019-03-11T17:01:09.552Z,6.33
2019-03-11T17:02:09.607Z,6.31
2019-03-11T17:04:02.617Z,6.27
2019-03-11T17:05:02.655Z,6.27
2019-03-11T17:06:55.722Z,6.27
2019-03-11T17:07:55.743Z,6.28
2019-03-11T17:09:48.738Z,6.27
2019-03-11T17:10:48.754Z,6.20
2019-03-11T17:12:41.753Z,6.24
2019-03-11T17:13:41.793Z,6.20
2019-03-11T17:15:34.841Z,6.30
2019-03-11T17:16:34.873Z,6.26
2019-03-11T17:18:27.823Z,6.27
2019-03-11T17:19:27.930Z,6.36
2019-03-11T17:21:20.944Z,6.36
2019-03-11T17:22:20.953Z,6.31
2019-03-11T17:24:13.931Z,6.35
2019-03-11T17:25:13.941Z,6.36
2019-03-11T17:27:06.970Z,6.30
2019-03-11T17:28:07.008Z,6.24
2019-03-11T17:29:59.986Z,6.28
2019-03-11T17:31:00.031Z,6.19
2019-03-11T17:32:53.012Z,6.22
2019-03-11T17:33:53.098Z,6.27
2019-03-11T17:35:46.059Z,6.17
2019-03-11T17:36:46.101Z,6.20
2019-03-11T17:38:39.210Z,6.27
2019-03-11T17:39:39.139Z,6.22
2019-03-11T17:41:32.132Z,6.24
2019-03-11T17:42:32.196Z,6.22
2019-03-11T17:44:25.334Z,6.27
2019-03-11T17:45:25.210Z,6.27
2019-03-11T17:47:18.207Z,6.27
2019-03-11T17:48:18.882Z,6.22
2019-03-11T17:50:11.238Z,6.26
2019-03-11T17:51:11.287Z,6.20
2019-03-11T17:53:04.303Z,6.26
2019-03-11T17:54:04.314Z,6.22
2019-03-11T17:55:57.283Z,6.24
2019-03-11T17:56:57.339Z,6.17
2019-03-11T17:58:50.325Z,6.22
2019-03-11T17:59:50.368Z,6.26
2019-03-11T18:01:43.342Z,6.24
2019-03-11T18:02:43.401Z,6.27
2019-03-11T18:04:36.385Z,6.30
2019-03-11T18:05:36.433Z,6.26
2019-03-11T18:07:29.430Z,6.26
2019-03-11T18:08:29.466Z,6.33
2019-03-11T18:10:22.455Z,6.28
2019-03-11T18:11:22.506Z,6.33
2019-03-11T18:13:15.496Z,6.33
2019-03-11T18:14:15.686Z,6.36
2019-03-11T18:16:08.521Z,6.39
2019-03-11T18:17:08.567Z,6.31
2019-03-11T18:19:01.548Z,6.44
2019-03-11T18:20:01.619Z,6.33
2019-03-11T18:21:54.571Z,6.33
2019-03-11T18:22:54.631Z,6.30
2019-03-11T18:24:47.609Z,6.44
2019-03-11T18:25:47.668Z,6.44
2019-03-11T18:27:42.134Z,6.45
2019-03-11T18:28:42.342Z,6.49
2019-03-11T18:30:35.242Z,6.42
2019-03-11T18:31:35.284Z,6.41
2019-03-11T18:33:28.267Z,6.48
2019-03-11T18:34:28.297Z,6.49
2019-03-11T18:36:21.328Z,6.46
2019-03-11T18:37:21.340Z,6.49
2019-03-11T18:39:14.332Z,6.45
2019-03-11T18:40:14.395Z,6.49
2019-03-11T18:42:07.352Z,6.46
2019-03-11T18:43:07.397Z,6.46
2019-03-11T18:45:00.499Z,6.30
2019-03-11T18:46:00.426Z,6.39
2019-03-11T18:47:53.412Z,6.31
2019-03-11T18:48:53.505Z,6.30
2019-03-11T18:50:46.437Z,6.36
2019-03-11T18:51:46.487Z,6.31
2019-03-11T18:53:39.470Z,6.33
2019-03-11T18:54:39.819Z,6.31
2019-03-11T18:56:32.501Z,6.45
2019-03-11T18:57:32.551Z,6.41
2019-03-11T18:59:25.550Z,6.46
2019-03-11T19:00:25.592Z,6.48
2019-03-11T19:02:18.599Z,6.44
2019-03-11T19:03:18.705Z,6.52
2019-03-11T19:05:11.644Z,6.57
2019-03-11T19:06:11.737Z,6.67
2019-03-11T19:08:04.681Z,6.56
2019-03-11T19:09:04.731Z,6.57
2019-03-11T19:10:57.725Z,6.46